createdAt,value
2018-12-23T00:01:27.315Z,101811.20
2018-12-23T00:03:58.515Z,101798.95
2018-12-23T00:06:28.918Z,101805.12
2018-12-23T00:08:59.801Z,101802.94
2018-12-23T00:11:32.843Z,101805.99
2018-12-23T00:14:02.711Z,101808.62
2018-12-23T00:16:33.797Z,101811.73
2018-12-23T00:19:03.955Z,101808.56
2018-12-23T00:21:35.781Z,101804.65
2018-12-23T00:24:07.910Z,101817.40
2018-12-23T00:26:37.857Z,101815.57
2018-12-23T00:29:07.410Z,101815.99
2018-12-23T00:31:36.770Z,101812.04
2018-12-23T00:34:06.007Z,101815.12
2018-12-23T00:36:35.372Z,101820.78
2018-12-23T00:39:05.942Z,101823.83
2018-12-23T00:41:36.678Z,101827.78
2018-12-23T00:44:04.593Z,101824.70
2018-12-23T00:46:33.954Z,101834.41
2018-12-23T00:49:03.236Z,101825.63
2018-12-23T00:51:32.564Z,101828.75
2018-12-23T00:54:01.876Z,101826.11
2018-12-23T00:56:31.211Z,101827.40
2018-12-23T00:59:00.500Z,101826.11
2018-12-23T01:01:29.836Z,101839.64
2018-12-23T01:03:59.092Z,101834.85
2018-12-23T01:06:28.402Z,101839.25
2018-12-23T01:08:57.710Z,101835.72
2018-12-23T01:11:27.030Z,101840.93
2018-12-23T01:13:56.306Z,101838.71
2018-12-23T01:16:25.733Z,101836.92
2018-12-23T01:18:54.997Z,101844.83
2018-12-23T01:21:24.312Z,101843.44
2018-12-23T01:23:53.556Z,101839.13
2018-12-23T01:26:22.827Z,101840.00
2018-12-23T01:28:52.092Z,101846.98
2018-12-23T01:31:21.400Z,101850.54
2018-12-23T01:33:50.726Z,101846.11
2018-12-23T01:36:19.978Z,101852.25
2018-12-23T01:38:49.393Z,101852.34
2018-12-23T01:41:18.675Z,101850.03
2018-12-23T01:43:48.031Z,101856.70
2018-12-23T01:46:17.411Z,101866.38
2018-12-23T01:48:46.658Z,101858.86
2018-12-23T01:51:16.016Z,101860.16
2018-12-23T01:53:45.328Z,101854.02
2018-12-23T01:56:14.722Z,101868.12
2018-12-23T01:58:44.050Z,101864.17
2018-12-23T02:01:13.305Z,101861.95
2018-12-23T02:03:42.603Z,101862.84
2018-12-23T02:06:13.353Z,101857.16
2018-12-23T02:08:41.238Z,101854.88
2018-12-23T02:11:10.631Z,101854.94
2018-12-23T02:13:40.104Z,101873.36
2018-12-23T02:16:09.464Z,101857.55
2018-12-23T02:18:38.765Z,101863.69
2018-12-23T02:21:08.156Z,101863.63
2018-12-23T02:23:37.456Z,101859.70
2018-12-23T02:26:06.740Z,101870.66
2018-12-23T02:28:36.130Z,101868.48
2018-12-23T02:31:05.517Z,101857.13
2018-12-23T02:33:34.755Z,101860.66
2018-12-23T02:36:04.134Z,101853.14
2018-12-23T02:38:33.435Z,101854.47
2018-12-23T02:41:02.735Z,101857.03
2018-12-23T02:43:32.062Z,101859.19
2018-12-23T02:46:01.566Z,101866.23
2018-12-23T02:48:30.878Z,101862.21
2018-12-23T02:51:00.274Z,101861.34
2018-12-23T02:53:29.676Z,101863.59
2018-12-23T02:55:59.000Z,101859.19
2018-12-23T02:58:28.325Z,101856.45
2018-12-23T03:00:57.692Z,101856.94
2018-12-23T03:03:26.982Z,101857.74
2018-12-23T03:06:05.453Z,101868.32
2018-12-23T03:08:25.578Z,101867.00
2018-12-23T03:10:54.866Z,101869.25
2018-12-23T03:13:24.167Z,101863.98
2018-12-23T03:15:53.496Z,101859.61
2018-12-23T03:18:22.800Z,101859.12
2018-12-23T03:20:52.222Z,101860.52
2018-12-23T03:23:21.589Z,101857.39
2018-12-23T03:25:50.852Z,101856.91
2018-12-23T03:28:20.275Z,101855.14
2018-12-23T03:30:49.569Z,101811.95
2018-12-23T03:33:18.859Z,101857.81
2018-12-23T03:35:48.266Z,101861.28
2018-12-23T03:38:17.509Z,101863.05
2018-12-23T03:40:46.756Z,101864.78
2018-12-23T03:43:16.135Z,101863.91
2018-12-23T03:45:45.407Z,101856.84
2018-12-23T03:48:14.719Z,101851.15
2018-12-23T03:50:44.012Z,101851.98
2018-12-23T03:53:13.341Z,101855.03
2018-12-23T03:55:42.719Z,101852.02
2018-12-23T03:58:12.073Z,101843.69
2018-12-23T04:00:41.349Z,101852.50
2018-12-23T04:03:10.836Z,101851.60
2018-12-23T04:05:40.105Z,101849.87
2018-12-23T04:08:09.384Z,101854.20
2018-12-23T04:10:38.671Z,101853.78
2018-12-23T04:13:07.923Z,101862.53
2018-12-23T04:15:37.243Z,101847.99
2018-12-23T04:18:06.660Z,101862.91
2018-12-23T04:20:35.933Z,101853.72
2018-12-23T04:23:05.235Z,101845.81
2018-12-23T04:25:34.517Z,101849.27
2018-12-23T04:28:03.816Z,101851.95
2018-12-23T04:30:33.155Z,101843.59
2018-12-23T04:33:02.450Z,101857.26
2018-12-23T04:35:31.757Z,101859.89
2018-12-23T04:38:01.146Z,101855.94
2018-12-23T04:40:30.459Z,101850.22
2018-12-23T04:42:59.708Z,101841.44
2018-12-23T04:45:29.068Z,101848.44
2018-12-23T04:47:58.352Z,101844.87
2018-12-23T04:50:27.654Z,101843.09
2018-12-23T04:52:56.930Z,101844.45
2018-12-23T04:55:26.229Z,101845.80
2018-12-23T04:57:55.537Z,101840.53
2018-12-23T05:00:24.778Z,101844.00
2018-12-23T05:02:54.024Z,101850.59
2018-12-23T05:05:23.299Z,101847.58
2018-12-23T05:07:52.542Z,101849.69
2018-12-23T05:10:21.795Z,101844.45
2018-12-23T05:12:51.141Z,101858.50
2018-12-23T05:15:20.396Z,101864.64
2018-12-23T05:17:49.740Z,101856.73
2018-12-23T05:20:19.174Z,101857.59
2018-12-23T05:22:48.414Z,101858.92
2018-12-23T05:25:17.652Z,101854.02
2018-12-23T05:27:46.965Z,101864.08
2018-12-23T05:30:16.224Z,101861.48
2018-12-23T05:32:45.499Z,101846.11
2018-12-23T05:35:14.743Z,101839.90
2018-12-23T05:37:44.058Z,101844.30
2018-12-23T05:40:13.277Z,101839.03
2018-12-23T05:42:42.532Z,101838.16
2018-12-23T05:45:11.858Z,101840.42
2018-12-23T05:47:41.140Z,101850.52
2018-12-23T05:50:10.438Z,101865.96
2018-12-23T05:52:39.777Z,101831.23
2018-12-23T05:55:09.040Z,101849.23
2018-12-23T05:57:38.311Z,101843.97
2018-12-23T06:00:07.560Z,101845.32
2018-12-23T06:02:36.801Z,101841.89
2018-12-23T06:05:06.075Z,101853.78
2018-12-23T06:07:35.327Z,101854.23
2018-12-23T06:10:04.588Z,101860.44
2018-12-23T06:12:33.860Z,101863.14
2018-12-23T06:15:03.120Z,101861.83
2018-12-23T06:17:32.353Z,101860.09
2018-12-23T06:20:01.628Z,101852.98
2018-12-23T06:22:30.958Z,101858.67
2018-12-23T06:25:00.295Z,101860.86
2018-12-23T06:27:29.569Z,101863.47
2018-12-23T06:29:58.869Z,101865.65
2018-12-23T06:32:28.100Z,101874.45
2018-12-23T06:34:57.481Z,101872.30
2018-12-23T06:37:26.741Z,101869.19
2018-12-23T06:39:56.009Z,101868.35
2018-12-23T06:42:25.251Z,101874.04
2018-12-23T06:44:54.534Z,101866.62
2018-12-23T06:47:23.746Z,101869.67
2018-12-23T06:49:53.031Z,101872.79
2018-12-23T06:52:22.295Z,101881.08
2018-12-23T06:54:51.573Z,101872.81
2018-12-23T06:57:20.860Z,101883.33
2018-12-23T06:59:50.205Z,101880.22
2018-12-23T07:02:19.463Z,101890.31
2018-12-23T07:04:48.719Z,101893.36
2018-12-23T07:07:18.745Z,101885.00
2018-12-23T07:09:47.388Z,101890.27
2018-12-23T07:12:16.683Z,101887.16
2018-12-23T07:14:45.988Z,101888.06
2018-12-23T07:17:15.283Z,101881.44
2018-12-23T07:19:44.571Z,101888.06
2018-12-23T07:22:13.861Z,101876.64
2018-12-23T07:24:43.192Z,101886.36
2018-12-23T07:27:15.435Z,101884.07
2018-12-23T07:29:44.706Z,101883.17
2018-12-23T07:32:13.988Z,101878.80
2018-12-23T07:34:43.223Z,101870.53
2018-12-23T07:37:15.473Z,101879.66
2018-12-23T07:39:44.739Z,101880.98
2018-12-23T07:42:14.029Z,101877.93
2018-12-23T07:44:43.305Z,101877.90
2018-12-23T07:47:12.559Z,101871.34
2018-12-23T07:49:41.807Z,101895.45
2018-12-23T07:52:11.071Z,101880.47
2018-12-23T07:54:40.340Z,101884.04
2018-12-23T07:57:09.605Z,101886.67
2018-12-23T07:59:38.901Z,101899.44
2018-12-23T08:02:08.243Z,101894.55
2018-12-23T08:04:37.509Z,101897.19
2018-12-23T08:07:06.788Z,101901.11
2018-12-23T08:09:36.081Z,101890.11
2018-12-23T08:12:05.390Z,101889.31
2018-12-23T08:14:34.754Z,101879.22
2018-12-23T08:17:04.070Z,101888.86
2018-12-23T08:19:33.368Z,101892.81
2018-12-23T08:22:02.628Z,101881.41
2018-12-23T08:24:31.920Z,101873.91
2018-12-23T08:27:01.180Z,101863.29
2018-12-23T08:29:30.557Z,101873.00
2018-12-23T08:31:59.935Z,101871.99
2018-12-23T08:34:29.266Z,101880.17
2018-12-23T08:36:58.743Z,101874.41
2018-12-23T08:39:28.065Z,101877.83
2018-12-23T08:41:57.385Z,101880.43
2018-12-23T08:44:26.605Z,101870.23
2018-12-23T08:46:55.917Z,101872.30
2018-12-23T08:49:25.185Z,101871.88
2018-12-23T08:51:54.441Z,101870.57
2018-12-23T08:54:23.749Z,101871.89
2018-12-23T08:56:53.131Z,101872.38
2018-12-23T08:59:22.535Z,101871.55
2018-12-23T09:01:51.768Z,101880.02
2018-12-23T09:04:21.040Z,101877.87
2018-12-23T09:06:50.379Z,101862.08
2018-12-23T09:09:19.662Z,101872.97
2018-12-23T09:11:49.010Z,101867.31
2018-12-23T09:14:18.408Z,101864.68
2018-12-23T09:16:47.775Z,101858.08
2018-12-23T09:19:17.058Z,101858.45
2018-12-23T09:21:46.606Z,101871.19
2018-12-23T09:24:15.776Z,101865.42
2018-12-23T09:26:45.044Z,101852.72
2018-12-23T09:29:14.292Z,101856.23
2018-12-23T09:31:43.630Z,101852.63
2018-12-23T09:34:12.961Z,101855.23
2018-12-23T09:36:42.286Z,101859.19
2018-12-23T09:39:11.710Z,101863.56
2018-12-23T09:41:40.968Z,101865.75
2018-12-23T09:44:10.230Z,101860.45
2018-12-23T09:46:39.513Z,101870.07
2018-12-23T09:49:08.885Z,101866.16
2018-12-23T09:51:38.157Z,101879.77
2018-12-23T09:54:07.443Z,101870.48
2018-12-23T09:56:36.739Z,101860.87
2018-12-23T09:59:06.005Z,101861.29
2018-12-23T10:01:35.334Z,101859.52
2018-12-23T10:04:04.641Z,101857.73
2018-12-23T10:06:33.897Z,101856.83
2018-12-23T10:09:03.191Z,101866.06
2018-12-23T10:11:32.508Z,101848.03
2018-12-23T10:14:01.843Z,101843.17
2018-12-23T10:16:31.085Z,101838.75
2018-12-23T10:19:00.389Z,101841.80
2018-12-23T10:21:29.664Z,101844.45
2018-12-23T10:23:58.941Z,101836.94
2018-12-23T10:26:28.225Z,101837.75
2018-12-23T10:28:57.568Z,101833.34
2018-12-23T10:31:26.847Z,101836.39
2018-12-23T10:33:56.801Z,101831.52
2018-12-23T10:36:26.241Z,101822.31
2018-12-23T10:38:55.516Z,101821.86
2018-12-23T10:41:24.811Z,101815.66
2018-12-23T10:43:54.134Z,101815.72
2018-12-23T10:46:23.491Z,101819.18
2018-12-23T10:48:52.815Z,101816.13
2018-12-23T10:51:22.103Z,101814.75
2018-12-23T10:53:51.377Z,101813.44
2018-12-23T10:56:20.761Z,101800.64
2018-12-23T10:58:50.129Z,101787.48
2018-12-23T11:01:19.476Z,101795.40
2018-12-23T11:03:48.826Z,101786.72
2018-12-23T11:06:18.153Z,101776.12
2018-12-23T11:08:47.447Z,101789.72
2018-12-23T11:11:16.852Z,101784.04
2018-12-23T11:13:46.134Z,101773.47
2018-12-23T11:16:15.485Z,101759.42
2018-12-23T11:18:44.885Z,101767.80
2018-12-23T11:21:14.223Z,101757.33
2018-12-23T11:23:43.554Z,101760.38
2018-12-23T11:26:12.855Z,101772.16
2018-12-23T11:28:42.251Z,101763.03
2018-12-23T11:31:11.655Z,101763.92
2018-12-23T11:33:40.940Z,101754.69
2018-12-23T11:36:10.284Z,101754.14
2018-12-23T11:38:39.572Z,101761.30
2018-12-23T11:41:08.868Z,101766.11
2018-12-23T11:43:38.273Z,101755.55
2018-12-23T11:46:07.567Z,101741.03
2018-12-23T11:48:37.068Z,101741.08
2018-12-23T11:51:06.839Z,101734.49
2018-12-23T11:53:35.647Z,101733.56
2018-12-23T11:56:04.957Z,101728.34
2018-12-23T11:58:34.302Z,101727.84
2018-12-23T12:01:03.665Z,101722.20
2018-12-23T12:03:32.955Z,101731.39
2018-12-23T12:06:02.281Z,101726.58
2018-12-23T12:08:31.554Z,101727.88
2018-12-23T12:11:01.008Z,101711.70
2018-12-23T12:13:30.282Z,101716.88
2018-12-23T12:15:59.610Z,101712.47
2018-12-23T12:18:28.893Z,101707.98
2018-12-23T12:20:58.301Z,101708.84
2018-12-23T12:23:27.815Z,101705.86
2018-12-23T12:25:57.226Z,101698.05
2018-12-23T12:28:26.847Z,101682.16
2018-12-23T12:30:56.299Z,101701.14
2018-12-23T12:33:25.587Z,101692.77
2018-12-23T12:35:54.877Z,101673.89
2018-12-23T12:38:24.205Z,101678.71
2018-12-23T12:40:53.793Z,101661.84
2018-12-23T12:43:23.073Z,101668.38
2018-12-23T12:46:00.348Z,101666.67
2018-12-23T12:48:21.754Z,101671.14
2018-12-23T12:50:51.127Z,101671.65
2018-12-23T12:53:20.468Z,101676.37
2018-12-23T12:55:49.817Z,101664.95
2018-12-23T12:58:19.170Z,101673.83
2018-12-23T13:00:48.459Z,101670.86
2018-12-23T13:03:17.756Z,101668.16
2018-12-23T13:05:47.132Z,101661.14
2018-12-23T13:08:16.540Z,101662.46
2018-12-23T13:10:45.876Z,101671.75
2018-12-23T13:13:15.140Z,101667.34
2018-12-23T13:15:44.690Z,101662.92
2018-12-23T13:18:14.019Z,101661.16
2018-12-23T13:20:43.328Z,101659.43
2018-12-23T13:23:12.760Z,101663.39
2018-12-23T13:25:42.200Z,101658.98
2018-12-23T13:28:11.530Z,101656.28
2018-12-23T13:30:41.006Z,101661.62
2018-12-23T13:33:10.432Z,101658.11
2018-12-23T13:35:39.770Z,101661.09
2018-12-23T13:38:09.117Z,101662.52
2018-12-23T13:40:56.327Z,101663.84
2018-12-23T13:43:49.577Z,101650.66
2018-12-23T13:46:47.999Z,101638.89
2018-12-23T13:50:05.286Z,101642.89
2018-12-23T13:53:28.326Z,101643.81
2018-12-23T13:56:30.515Z,101637.66
2018-12-23T13:59:38.181Z,101634.12
2018-12-23T14:02:41.958Z,101634.13
2018-12-23T14:05:47.903Z,101628.55
2018-12-23T14:08:33.991Z,101627.69
2018-12-23T14:11:58.514Z,101623.31
2018-12-23T14:14:27.914Z,101627.33
2018-12-23T14:16:57.267Z,101619.72
2018-12-23T14:19:26.881Z,101617.23
2018-12-23T14:21:56.183Z,101616.44
2018-12-23T14:24:25.443Z,101607.55
2018-12-23T14:26:54.819Z,101612.42
2018-12-23T14:29:24.202Z,101622.16
2018-12-23T14:31:53.554Z,101614.25
2018-12-23T14:34:22.901Z,101614.76
2018-12-23T14:36:52.237Z,101609.48
2018-12-23T14:39:27.111Z,101592.84
2018-12-23T14:41:50.942Z,101588.50
2018-12-23T14:44:20.238Z,101598.28
2018-12-23T14:46:49.505Z,101599.55
2018-12-23T14:49:18.823Z,101603.91
2018-12-23T14:51:48.127Z,101594.73
2018-12-23T14:54:17.450Z,101580.69
2018-12-23T14:56:46.739Z,101579.11
2018-12-23T14:59:16.060Z,101582.25
2018-12-23T15:01:45.421Z,101584.95
2018-12-23T15:04:15.041Z,101579.30
2018-12-23T15:06:44.418Z,101573.13
2018-12-23T15:09:13.749Z,101572.27
2018-12-23T15:11:43.022Z,101574.45
2018-12-23T15:14:12.348Z,101578.86
2018-12-23T15:16:41.622Z,101573.69
2018-12-23T15:19:10.930Z,101562.32
2018-12-23T15:21:40.284Z,101553.16
2018-12-23T15:24:09.656Z,101556.23
2018-12-23T15:26:39.176Z,101556.19
2018-12-23T15:29:08.487Z,101556.69
2018-12-23T15:31:37.867Z,101558.47
2018-12-23T15:34:07.150Z,101552.84
2018-12-23T15:36:36.464Z,101548.93
2018-12-23T15:39:06.968Z,101551.61
2018-12-23T15:41:36.262Z,101552.52
2018-12-23T15:44:05.569Z,101557.42
2018-12-23T15:46:34.878Z,101558.28
2018-12-23T15:49:04.182Z,101554.83
2018-12-23T15:51:33.634Z,101544.75
2018-12-23T15:54:02.972Z,101542.07
2018-12-23T15:56:32.309Z,101536.39
2018-12-23T15:59:01.688Z,101527.22
2018-12-23T16:01:31.027Z,101515.41
2018-12-23T16:04:00.318Z,101515.01
2018-12-23T16:06:29.661Z,101509.78
2018-12-23T16:08:59.013Z,101512.41
2018-12-23T16:11:28.522Z,101515.95
2018-12-23T16:13:57.798Z,101510.73
2018-12-23T16:16:27.323Z,101504.11
2018-12-23T16:18:56.891Z,101511.19
2018-12-23T16:21:26.234Z,101502.47
2018-12-23T16:23:55.717Z,101489.34
2018-12-23T16:26:25.145Z,101494.62
2018-12-23T16:28:54.436Z,101484.13
2018-12-23T16:31:23.760Z,101468.38
2018-12-23T16:33:53.227Z,101472.33
2018-12-23T16:36:22.799Z,101480.22
2018-12-23T16:38:52.154Z,101473.68
2018-12-23T16:41:21.571Z,101474.59
2018-12-23T16:43:50.934Z,101467.14
2018-12-23T16:46:20.451Z,101469.36
2018-12-23T16:48:49.849Z,101464.52
2018-12-23T16:51:19.216Z,101462.75
2018-12-23T16:53:48.757Z,101463.23
2018-12-23T16:56:18.112Z,101452.70
2018-12-23T16:58:47.402Z,101454.52
2018-12-23T17:01:16.795Z,101446.17
2018-12-23T17:03:46.103Z,101455.80
2018-12-23T17:06:15.415Z,101453.16
2018-12-23T17:08:44.786Z,101448.84
2018-12-23T17:11:14.212Z,101448.44
2018-12-23T17:13:43.637Z,101459.79
2018-12-23T17:16:13.006Z,101447.53
2018-12-23T17:18:42.273Z,101449.67
2018-12-23T17:21:11.619Z,101447.00
2018-12-23T17:23:40.979Z,101446.13
2018-12-23T17:26:10.293Z,101442.63
2018-12-23T17:28:39.576Z,101447.08
2018-12-23T17:31:08.880Z,101442.67
2018-12-23T17:33:38.188Z,101445.80
2018-12-23T17:36:07.504Z,101447.13
2018-12-23T17:38:36.806Z,101439.68
2018-12-23T17:41:06.098Z,101427.02
2018-12-23T17:43:35.372Z,101430.97
2018-12-23T17:46:04.724Z,101433.60
2018-12-23T17:48:33.979Z,101422.66
2018-12-23T17:51:03.325Z,101416.55
2018-12-23T17:53:32.627Z,101420.49
2018-12-23T17:56:01.918Z,101418.31
2018-12-23T17:58:31.279Z,101421.39
2018-12-23T18:01:00.713Z,101420.95
2018-12-23T18:03:30.122Z,101414.82
2018-12-23T18:05:59.382Z,101410.88
2018-12-23T18:08:28.698Z,101416.13
2018-12-23T18:10:57.972Z,101411.25
2018-12-23T18:13:27.285Z,101409.14
2018-12-23T18:15:56.586Z,101415.72
2018-12-23T18:18:25.920Z,101411.78
2018-12-23T18:20:55.222Z,101413.55
2018-12-23T18:23:24.526Z,101401.30
2018-12-23T18:25:53.826Z,101400.88
2018-12-23T18:28:23.097Z,101413.59
2018-12-23T18:30:52.402Z,101418.39
2018-12-23T18:33:21.823Z,101415.31
2018-12-23T18:35:51.062Z,101416.21
2018-12-23T18:38:20.426Z,101417.53
2018-12-23T18:40:49.747Z,101414.48
2018-12-23T18:43:19.029Z,101415.80
2018-12-23T18:45:48.358Z,101413.17
2018-12-23T18:48:17.740Z,101404.83
2018-12-23T18:50:46.996Z,101405.28
2018-12-23T18:53:16.356Z,101406.63
2018-12-23T18:55:45.645Z,101408.81
2018-12-23T18:58:14.930Z,101408.81
2018-12-23T19:00:46.385Z,101403.59
2018-12-23T19:03:15.715Z,101405.77
2018-12-23T19:05:44.998Z,101405.81
2018-12-23T19:08:18.414Z,101401.87
2018-12-23T19:11:11.911Z,101412.80
2018-12-23T19:14:16.773Z,101405.36
2018-12-23T19:17:09.441Z,101400.11
2018-12-23T19:20:01.405Z,101398.79
2018-12-23T19:23:01.903Z,101390.08
2018-12-23T19:26:07.626Z,101385.72
2018-12-23T19:28:58.060Z,101383.54
2018-12-23T19:32:27.354Z,101379.63
2018-12-23T19:35:33.329Z,101375.77
2018-12-23T19:38:25.002Z,101373.59
2018-12-23T19:41:39.729Z,101375.73
2018-12-23T19:44:24.902Z,101382.27
2018-12-23T19:47:58.135Z,101380.08
2018-12-23T19:51:02.621Z,101383.99
2018-12-23T19:54:25.008Z,101386.66
2018-12-23T19:57:32.908Z,101391.92
2018-12-23T20:00:24.720Z,101390.68
2018-12-23T20:03:30.415Z,101396.39
2018-12-23T20:06:36.825Z,101396.02
2018-12-23T20:10:04.312Z,101395.59
2018-12-23T20:13:06.863Z,101388.58
2018-12-23T20:16:29.046Z,101381.10
2018-12-23T20:19:42.304Z,101387.30
2018-12-23T20:22:28.332Z,101382.94
2018-12-23T20:25:22.777Z,101385.98
2018-12-23T20:28:26.259Z,101382.52
2018-12-23T20:31:25.414Z,101381.63
2018-12-23T20:34:29.662Z,101375.05
2018-12-23T20:37:30.521Z,101383.84
2018-12-23T20:40:28.875Z,101386.05
2018-12-23T20:43:30.294Z,101400.06
2018-12-23T20:46:30.346Z,101401.83
2018-12-23T20:49:21.596Z,101408.44
2018-12-23T20:52:28.296Z,101396.61
2018-12-23T20:55:41.974Z,101399.69
2018-12-23T20:58:45.241Z,101393.15
2018-12-23T21:01:40.507Z,101390.48
2018-12-23T21:04:48.625Z,101397.09
2018-12-23T21:08:03.692Z,101394.02
2018-12-23T21:11:18.700Z,101393.18
2018-12-23T21:14:38.220Z,101395.81
2018-12-23T21:17:34.572Z,101405.91
2018-12-23T21:20:43.514Z,101406.39
2018-12-23T21:23:57.745Z,101407.70
2018-12-23T21:27:03.805Z,101415.97
2018-12-23T21:30:06.110Z,101416.00
2018-12-23T21:33:20.285Z,101398.05
2018-12-23T21:36:33.260Z,101395.84
2018-12-23T21:39:47.149Z,101405.45
2018-12-23T21:42:52.453Z,101418.14
2018-12-23T21:45:50.237Z,101425.64
2018-12-23T21:49:03.142Z,101425.23
2018-12-23T21:52:08.848Z,101422.19
2018-12-23T21:55:24.907Z,101421.28
2018-12-23T21:58:26.522Z,101418.72
2018-12-23T22:01:25.987Z,101424.45
2018-12-23T22:04:36.630Z,101415.25
2018-12-23T22:07:35.442Z,101425.29
2018-12-23T22:10:38.133Z,101426.19
2018-12-23T22:13:32.695Z,101417.88
2018-12-23T22:16:01.942Z,101413.55
2018-12-23T22:18:31.201Z,101412.21
2018-12-23T22:21:00.549Z,101419.64
2018-12-23T22:23:30.028Z,101415.34
2018-12-23T22:26:01.702Z,101423.25
2018-12-23T22:28:30.987Z,101431.97
2018-12-23T22:31:00.266Z,101427.11
2018-12-23T22:33:29.528Z,101426.72
2018-12-23T22:35:58.770Z,101437.70
2018-12-23T22:38:28.063Z,101441.61
2018-12-23T22:41:13.257Z,101436.83
2018-12-23T22:43:42.533Z,101444.27
2018-12-23T22:46:11.843Z,101455.61
2018-12-23T22:48:41.106Z,101449.91
2018-12-23T22:51:10.506Z,101454.75
2018-12-23T22:53:39.893Z,101464.78
2018-12-23T22:56:11.079Z,101462.58
2018-12-23T22:58:40.502Z,101466.54
2018-12-23T23:01:09.860Z,101459.08
2018-12-23T23:03:39.129Z,101465.20
2018-12-23T23:06:08.427Z,101469.17
2018-12-23T23:08:37.707Z,101475.31
2018-12-23T23:11:06.961Z,101479.25
2018-12-23T23:13:36.272Z,101476.60
2018-12-23T23:16:05.503Z,101478.39
2018-12-23T23:18:34.834Z,101473.56
2018-12-23T23:21:04.107Z,101466.14
2018-12-23T23:23:33.538Z,101465.28
2018-12-23T23:26:02.830Z,101472.27
2018-12-23T23:28:32.120Z,101469.22
2018-12-23T23:31:01.550Z,101478.41
2018-12-23T23:33:30.824Z,101478.88
2018-12-23T23:36:00.113Z,101482.84
2018-12-23T23:38:29.423Z,101480.63
2018-12-23T23:40:58.755Z,101485.00
2018-12-23T23:43:28.001Z,101488.08
2018-12-23T23:45:57.355Z,101480.20
2018-12-23T23:48:26.605Z,101480.64
2018-12-23T23:50:55.930Z,101476.68
2018-12-23T23:53:25.183Z,101481.98
2018-12-23T23:55:54.469Z,101484.58
2018-12-23T23:58:23.764Z,101470.60
